Terminal Aerodrome Forecast
Issued by NWS Melbourne, FL

Home | Current Version | Previous Version | Text Only | Print | Product List | Glossary On
Versions: 1 2 3 4 5 6 7 8 9 10 11 12
000
FTUS42 KMLB 290500 RRA
TAFDAB
TAF
KDAB 290542Z 2906/3006 23006KT P6SM FEW025 SCT250
     FM291200 25008KT P6SM VCSH SCT025 BKN250
     FM291700 26010KT P6SM VCTS SCT035CB SCT080 BKN250
     FM300000 24007KT P6SM SCT040 BKN250=

USA.gov is the U.S. government's official web portal to all federal, state and local government web resources and services.